Time;durP1;ratioP1;P1;durP2;ratioP2;P2;SDS_P1;SDS_P2;PMS_P1;PMS_P2;Temp;Humidity;BMP_temperature;BMP_pressure;BME280_temperature;BME280_humidity;BME280_pressure;Samples;Min_cycle;Max_cycle;Signal;HPM_P1;HPM_P2
2023/01/07 00:01:47;;;;;;;0.88;0.82;;;12.60;99.90;;;;;;5007422;28;20689;-78
2023/01/07 00:04:14;;;;;;;2.45;1.13;;;12.60;99.90;;;;;;5022140;28;20385;-78
2023/01/07 00:06:42;;;;;;;1.90;0.90;;;12.60;99.90;;;;;;5023536;28;20042;-78
2023/01/07 00:09:11;;;;;;;1.40;0.93;;;12.60;99.90;;;;;;5022868;28;20127;-78
2023/01/07 00:11:39;;;;;;;1.73;1.10;;;12.60;99.90;;;;;;5007089;28;20057;-77
2023/01/07 00:14:07;;;;;;;1.13;0.70;;;12.60;99.90;;;;;;5023194;28;20067;-77
2023/01/07 00:16:34;;;;;;;1.08;0.80;;;12.60;99.90;;;;;;5023344;28;20077;-78
2023/01/07 00:19:03;;;;;;;1.17;0.90;;;12.60;99.90;;;;;;5023123;28;20073;-77
2023/01/07 00:21:29;;;;;;;1.95;1.30;;;12.60;99.90;;;;;;5006941;28;20169;-78
2023/01/07 00:23:58;;;;;;;2.78;1.10;;;12.60;99.90;;;;;;4989525;28;20049;-78
2023/01/07 00:26:26;;;;;;;1.45;1.08;;;12.60;99.90;;;;;;5024015;28;20056;-78
2023/01/07 00:28:53;;;;;;;1.02;0.80;;;12.50;99.90;;;;;;4990244;28;20053;-77
2023/01/07 00:31:21;;;;;;;1.88;0.90;;;12.60;99.90;;;;;;5022840;28;20052;-80
2023/01/07 00:34:05;;;;;;;1.67;0.90;;;12.50;99.90;;;;;;5021506;28;20157;-77
2023/01/07 00:36:37;;;;;;;2.47;1.05;;;12.50;99.90;;;;;;5008981;28;20057;-77
2023/01/07 00:39:22;;;;;;;1.55;1.23;;;12.50;99.90;;;;;;5006803;28;20041;-77
2023/01/07 00:44:35;;;;;;;2.20;1.02;;;12.60;99.90;;;;;;5022620;28;20050;-77
2023/01/07 00:47:02;;;;;;;2.03;1.10;;;12.50;99.90;;;;;;5005920;28;20757;-77
2023/01/07 00:49:29;;;;;;;3.70;1.70;;;12.60;99.90;;;;;;5022537;28;20092;-77
2023/01/07 00:51:55;;;;;;;1.90;1.05;;;12.50;99.90;;;;;;5022207;28;20056;-77
2023/01/07 00:54:22;;;;;;;2.83;1.13;;;12.50;99.90;;;;;;5022691;28;20090;-77
2023/01/07 00:56:49;;;;;;;4.50;1.90;;;12.50;99.90;;;;;;5022638;28;20061;-77
2023/01/07 00:59:16;;;;;;;2.72;1.27;;;12.50;99.90;;;;;;5003534;28;20064;-77
2023/01/07 01:01:42;;;;;;;1.95;1.30;;;12.50;99.90;;;;;;5004503;28;20053;-77
2023/01/07 01:04:09;;;;;;;1.95;1.25;;;12.50;99.90;;;;;;5020753;28;20057;-79
2023/01/07 01:06:36;;;;;;;3.20;1.25;;;12.50;99.90;;;;;;5004693;28;20172;-77
2023/01/07 01:09:03;;;;;;;2.70;1.20;;;12.50;99.90;;;;;;5021557;28;20600;-77
2023/01/07 01:11:29;;;;;;;2.35;1.23;;;12.50;99.90;;;;;;5022367;28;20579;-77
2023/01/07 01:13:56;;;;;;;1.98;1.08;;;12.50;99.90;;;;;;5005649;28;20069;-77
2023/01/07 01:16:23;;;;;;;2.60;1.10;;;12.50;99.90;;;;;;5023501;28;20144;-77
2023/01/07 01:18:49;;;;;;;2.10;1.10;;;12.40;99.90;;;;;;5021141;28;20061;-77
2023/01/07 01:21:17;;;;;;;1.90;1.02;;;12.50;99.90;;;;;;5022542;28;20487;-77
2023/01/07 01:23:44;;;;;;;2.10;1.20;;;12.50;99.90;;;;;;5022246;28;20125;-77
2023/01/07 01:26:15;;;;;;;1.73;0.90;;;12.50;99.90;;;;;;5005904;28;20053;-77
2023/01/07 01:28:42;;;;;;;1.55;1.02;;;12.50;99.90;;;;;;5021624;28;20072;-77
2023/01/07 01:31:09;;;;;;;1.73;0.90;;;12.50;99.90;;;;;;5023124;28;20060;-77
2023/01/07 01:33:36;;;;;;;1.60;1.15;;;12.50;99.90;;;;;;5004199;28;20084;-77
2023/01/07 01:36:06;;;;;;;1.65;0.90;;;12.50;99.90;;;;;;5004787;28;20134;-77
2023/01/07 01:38:33;;;;;;;1.60;1.40;;;12.50;99.90;;;;;;4989131;28;20162;-77
2023/01/07 01:41:00;;;;;;;1.45;1.13;;;12.50;99.90;;;;;;5005294;28;20138;-78
2023/01/07 01:43:31;;;;;;;3.92;1.60;;;12.50;99.90;;;;;;5004617;28;20057;-77
2023/01/07 01:46:14;;;;;;;1.48;1.08;;;12.50;99.90;;;;;;5021464;28;20050;-78
2023/01/07 01:49:03;;;;;;;1.65;1.05;;;12.50;99.90;;;;;;5005936;28;20141;-77
2023/01/07 01:51:33;;;;;;;2.00;0.98;;;12.50;99.90;;;;;;5005131;28;20045;-77
2023/01/07 01:54:04;;;;;;;2.50;1.15;;;12.50;99.90;;;;;;4983950;28;20046;-77
2023/01/07 01:56:33;;;;;;;1.83;1.00;;;12.50;99.90;;;;;;4985979;28;20195;-77
2023/01/07 01:59:02;;;;;;;1.85;1.10;;;12.50;99.90;;;;;;4969180;28;20045;-77
2023/01/07 02:01:31;;;;;;;1.80;1.20;;;12.50;99.90;;;;;;4985371;28;20143;-77
2023/01/07 02:03:59;;;;;;;2.67;1.27;;;12.50;99.90;;;;;;4988326;28;20479;-77
2023/01/07 02:06:28;;;;;;;2.38;1.17;;;12.50;99.90;;;;;;5004466;28;20060;-77
2023/01/07 02:08:55;;;;;;;1.52;1.10;;;12.50;99.90;;;;;;5004484;28;20061;-77
2023/01/07 02:11:37;;;;;;;2.17;1.30;;;12.50;99.90;;;;;;5020619;28;20136;-77
2023/01/07 02:14:28;;;;;;;1.38;0.95;;;12.50;99.90;;;;;;5020334;28;20428;-77
2023/01/07 02:17:19;;;;;;;3.55;1.52;;;12.40;99.90;;;;;;5020880;28;20138;-77
2023/01/07 02:19:52;;;;;;;2.72;1.05;;;12.40;99.90;;;;;;5020752;28;20610;-77
2023/01/07 02:22:22;;;;;;;1.77;1.20;;;12.40;99.90;;;;;;5020805;28;20137;-76
2023/01/07 02:25:10;;;;;;;2.75;1.23;;;12.40;99.90;;;;;;5020810;28;20164;-77
2023/01/07 02:27:45;;;;;;;2.40;1.40;;;12.40;99.90;;;;;;5020841;28;20049;-77
2023/01/07 02:30:33;;;;;;;1.70;1.13;;;12.40;99.90;;;;;;5021972;28;20057;-80
2023/01/07 02:33:24;;;;;;;1.00;0.90;;;12.40;99.90;;;;;;5017836;28;20053;-77
2023/01/07 02:36:21;;;;;;;3.10;1.23;;;12.40;99.90;;;;;;5037502;28;20049;-77
2023/01/07 02:38:48;;;;;;;1.70;1.00;;;12.40;99.90;;;;;;5007728;28;20053;-77
2023/01/07 02:41:28;;;;;;;2.45;0.93;;;12.40;99.90;;;;;;5023924;28;20106;-77
2023/01/07 02:44:25;;;;;;;1.70;1.08;;;12.40;99.90;;;;;;5022021;28;20045;-76
2023/01/07 02:47:12;;;;;;;2.92;1.35;;;12.40;99.90;;;;;;5023037;28;20120;-77
2023/01/07 02:49:39;;;;;;;2.90;1.48;;;12.30;99.90;;;;;;5007406;28;20064;-77
2023/01/07 02:52:21;;;;;;;2.22;1.30;;;12.30;99.90;;;;;;5023533;28;20053;-77
2023/01/07 02:55:11;;;;;;;2.13;1.27;;;12.30;99.90;;;;;;5011334;28;20050;-77
2023/01/07 02:57:59;;;;;;;1.17;0.75;;;12.30;99.90;;;;;;4986717;28;20525;-77
2023/01/07 03:00:48;;;;;;;2.03;1.20;;;12.30;99.90;;;;;;5003653;28;20140;-77
2023/01/07 03:03:33;;;;;;;1.27;0.90;;;12.30;99.90;;;;;;5012667;28;20089;-77
2023/01/07 03:06:09;;;;;;;1.45;1.08;;;12.30;99.90;;;;;;5022924;28;20113;-77
2023/01/07 03:08:51;;;;;;;4.25;1.30;;;12.20;99.90;;;;;;5023130;28;20062;-78
2023/01/07 03:11:18;;;;;;;1.40;1.00;;;12.20;99.90;;;;;;4991258;28;20489;-78
2023/01/07 03:13:57;;;;;;;2.38;1.15;;;12.20;99.90;;;;;;5005409;28;20125;-78
2023/01/07 03:16:37;;;;;;;3.35;1.10;;;12.20;99.90;;;;;;4991145;28;20119;-77
2023/01/07 03:19:16;;;;;;;1.70;0.80;;;12.20;99.90;;;;;;5020579;28;20049;-77
2023/01/07 03:21:43;;;;;;;1.38;0.93;;;12.20;99.90;;;;;;5007395;28;20053;-80
2023/01/07 03:24:10;;;;;;;1.45;1.00;;;12.20;99.90;;;;;;5004880;28;20243;-79
2023/01/07 03:26:39;;;;;;;2.53;1.30;;;12.20;99.90;;;;;;4989379;28;20061;-79
2023/01/07 03:29:07;;;;;;;3.30;1.10;;;12.20;99.90;;;;;;4989832;28;20061;-77
2023/01/07 03:31:34;;;;;;;2.33;1.45;;;12.20;99.90;;;;;;4993111;28;20049;-77
2023/01/07 03:34:11;;;;;;;3.30;1.30;;;12.20;99.90;;;;;;5007858;28;20107;-79
2023/01/07 03:36:43;;;;;;;1.13;0.70;;;12.20;99.90;;;;;;5010740;28;20081;-79
2023/01/07 03:39:10;;;;;;;2.20;1.20;;;12.20;99.90;;;;;;5009113;28;20089;-79
2023/01/07 03:44:23;;;;;;;1.58;1.00;;;12.20;99.90;;;;;;5025520;28;20495;-77
2023/01/07 03:46:50;;;;;;;1.73;1.00;;;12.10;99.90;;;;;;5025057;28;20049;-77
2023/01/07 03:49:16;;;;;;;1.88;0.90;;;12.10;99.90;;;;;;5008035;28;20507;-79
2023/01/07 03:51:44;;;;;;;1.45;0.85;;;12.10;99.90;;;;;;5009176;28;20045;-77
2023/01/07 03:54:12;;;;;;;4.15;1.17;;;12.10;99.90;;;;;;5024833;28;20143;-79
2023/01/07 03:56:38;;;;;;;4.03;1.48;;;12.10;99.90;;;;;;5026460;28;20575;-79
2023/01/07 03:59:05;;;;;;;1.73;0.82;;;12.10;99.90;;;;;;5026618;28;20554;-79
2023/01/07 04:01:32;;;;;;;1.60;0.90;;;12.00;99.90;;;;;;5025079;28;20195;-79
2023/01/07 04:03:58;;;;;;;2.88;1.25;;;12.00;99.90;;;;;;5025338;28;20519;-79
2023/01/07 04:06:28;;;;;;;2.50;1.52;;;12.00;99.90;;;;;;5025196;28;20050;-79
2023/01/07 04:08:55;;;;;;;2.17;1.15;;;12.00;99.90;;;;;;5024734;28;20205;-80
2023/01/07 04:11:22;;;;;;;2.80;1.20;;;11.90;99.90;;;;;;5008276;28;20089;-79
2023/01/07 04:13:48;;;;;;;1.60;0.90;;;11.90;99.90;;;;;;4982149;28;20137;-80
2023/01/07 04:16:15;;;;;;;2.75;1.20;;;11.90;99.90;;;;;;5025254;28;20049;-79
2023/01/07 04:18:42;;;;;;;2.00;1.02;;;11.90;99.90;;;;;;5025817;28;20045;-77
2023/01/07 04:21:09;;;;;;;1.60;1.00;;;11.80;99.90;;;;;;5024920;28;20126;-78
2023/01/07 04:23:35;;;;;;;2.72;1.17;;;11.80;99.90;;;;;;4992163;28;20129;-77
2023/01/07 04:26:02;;;;;;;3.05;1.20;;;11.80;99.90;;;;;;5026250;28;20056;-77
2023/01/07 04:28:29;;;;;;;2.28;1.20;;;11.80;99.90;;;;;;5026477;28;20495;-77
2023/01/07 04:30:58;;;;;;;3.05;1.30;;;11.80;99.90;;;;;;5026473;28;20050;-78
2023/01/07 04:33:25;;;;;;;1.90;1.20;;;11.80;99.90;;;;;;5000015;28;20056;-78
2023/01/07 04:35:51;;;;;;;2.63;1.08;;;11.80;99.90;;;;;;5005793;28;20444;-78
2023/01/07 04:38:18;;;;;;;2.17;1.35;;;11.70;99.90;;;;;;5007957;28;20439;-77
2023/01/07 04:40:45;;;;;;;2.40;1.48;;;11.80;99.90;;;;;;5023637;28;20053;-77
2023/01/07 04:43:11;;;;;;;1.25;0.93;;;11.80;99.90;;;;;;5008310;28;20046;-79
2023/01/07 04:45:38;;;;;;;3.53;1.48;;;11.70;99.90;;;;;;5024258;28;20061;-79
2023/01/07 04:48:05;;;;;;;3.33;1.42;;;11.70;99.90;;;;;;5025616;28;20061;-79
2023/01/07 04:50:32;;;;;;;3.88;1.25;;;11.70;99.90;;;;;;5007276;28;20061;-79
2023/01/07 04:52:59;;;;;;;2.38;1.10;;;11.70;99.90;;;;;;4990783;28;20052;-79
2023/01/07 04:55:25;;;;;;;1.60;1.00;;;11.60;99.90;;;;;;4976655;28;20050;-79
2023/01/07 04:57:52;;;;;;;3.08;1.20;;;11.60;99.90;;;;;;5005731;28;20395;-79
2023/01/07 05:00:19;;;;;;;1.92;1.15;;;11.60;99.90;;;;;;4972444;28;20066;-79
2023/01/07 05:02:45;;;;;;;3.45;1.55;;;11.60;99.90;;;;;;5007501;28;20049;-79
2023/01/07 05:05:12;;;;;;;2.35;1.23;;;11.60;99.90;;;;;;5023766;28;20148;-79
2023/01/07 05:07:39;;;;;;;1.55;1.02;;;11.50;99.90;;;;;;4990576;28;20045;-79
2023/01/07 05:10:06;;;;;;;2.35;1.27;;;11.50;99.90;;;;;;5007496;28;20136;-79
2023/01/07 05:12:36;;;;;;;1.45;0.75;;;11.50;99.90;;;;;;5023669;28;20224;-79
2023/01/07 05:15:04;;;;;;;2.58;0.90;;;11.50;99.90;;;;;;5023749;28;20081;-79
2023/01/07 05:17:30;;;;;;;1.15;0.80;;;11.50;99.90;;;;;;4991048;28;20097;-79
2023/01/07 05:19:57;;;;;;;2.00;1.10;;;11.50;99.90;;;;;;5019452;28;20053;-79
2023/01/07 05:22:24;;;;;;;1.15;0.90;;;11.50;99.90;;;;;;5001932;28;20049;-77
2023/01/07 05:24:51;;;;;;;4.07;1.48;;;11.50;99.90;;;;;;5020089;28;20050;-77
2023/01/07 05:27:18;;;;;;;1.00;0.80;;;11.50;99.90;;;;;;5007500;28;20045;-78
2023/01/07 05:29:44;;;;;;;3.33;1.20;;;11.50;99.90;;;;;;5014917;28;20054;-78
2023/01/07 05:32:11;;;;;;;1.98;1.10;;;11.50;99.90;;;;;;5019214;28;20064;-78
2023/01/07 05:34:38;;;;;;;3.78;1.13;;;11.50;99.90;;;;;;5017178;28;20049;-78
2023/01/07 05:37:04;;;;;;;2.55;1.02;;;11.50;99.90;;;;;;5013522;28;20050;-78
2023/01/07 05:39:31;;;;;;;2.55;0.95;;;11.50;99.90;;;;;;5021282;28;20045;-78
2023/01/07 05:41:58;;;;;;;1.83;1.10;;;11.50;99.90;;;;;;5018176;28;20137;-79
2023/01/07 05:44:25;;;;;;;2.22;0.93;;;11.50;99.90;;;;;;5019363;28;20045;-78
2023/01/07 05:46:51;;;;;;;2.05;1.13;;;11.50;99.90;;;;;;5005857;28;20420;-78
2023/01/07 05:49:18;;;;;;;1.50;0.90;;;11.50;99.90;;;;;;5019394;28;20060;-77
2023/01/07 05:51:45;;;;;;;3.15;1.55;;;11.50;99.90;;;;;;5022820;28;20446;-78
2023/01/07 05:54:11;;;;;;;2.08;1.13;;;11.40;99.90;;;;;;5019811;28;20049;-79
2023/01/07 05:56:38;;;;;;;3.40;1.38;;;11.40;99.90;;;;;;5021330;28;20053;-79
2023/01/07 05:59:05;;;;;;;3.22;1.65;;;11.40;99.90;;;;;;4997093;28;20482;-79
2023/01/07 06:01:32;;;;;;;2.95;1.35;;;11.50;99.90;;;;;;5020218;28;20376;-79
2023/01/07 06:03:58;;;;;;;3.20;1.20;;;11.40;99.90;;;;;;4996072;28;20056;-79
2023/01/07 06:06:25;;;;;;;3.38;1.13;;;11.40;99.90;;;;;;5011153;28;20580;-79
2023/01/07 06:08:52;;;;;;;1.67;1.02;;;11.40;99.90;;;;;;5016874;28;20144;-79
2023/01/07 06:11:19;;;;;;;1.60;0.85;;;11.40;99.90;;;;;;5018212;28;20045;-79
2023/01/07 06:13:45;;;;;;;1.65;1.05;;;11.40;99.90;;;;;;5008265;28;20054;-79
2023/01/07 06:16:12;;;;;;;2.67;1.35;;;11.40;99.90;;;;;;5015540;28;20056;-79
2023/01/07 06:18:39;;;;;;;2.40;1.20;;;11.30;99.90;;;;;;5016589;28;20571;-79
2023/01/07 06:21:06;;;;;;;2.92;1.27;;;11.30;99.90;;;;;;4997125;28;20133;-79
2023/01/07 06:23:33;;;;;;;3.40;1.63;;;11.30;99.90;;;;;;5013101;28;20100;-80
2023/01/07 06:25:59;;;;;;;1.73;1.20;;;11.30;99.90;;;;;;5016433;28;20132;-80
2023/01/07 06:28:26;;;;;;;2.20;1.40;;;11.30;99.90;;;;;;4999873;28;20065;-79
2023/01/07 06:30:53;;;;;;;2.03;1.20;;;11.30;99.90;;;;;;5033677;28;20152;-80
2023/01/07 06:33:20;;;;;;;2.80;1.52;;;11.30;99.90;;;;;;4997397;28;20053;-81
2023/01/07 06:35:47;;;;;;;2.08;1.25;;;11.30;99.90;;;;;;4997583;28;20484;-80
2023/01/07 06:38:13;;;;;;;2.33;1.25;;;11.30;99.90;;;;;;5001800;28;20786;-80
2023/01/07 06:40:40;;;;;;;4.43;1.50;;;11.30;99.90;;;;;;5000591;28;20527;-80
2023/01/07 06:43:07;;;;;;;1.65;1.02;;;11.30;99.90;;;;;;4997791;28;20058;-80
2023/01/07 06:45:34;;;;;;;1.63;1.00;;;11.30;99.90;;;;;;5014207;28;20041;-80
2023/01/07 06:48:01;;;;;;;2.63;1.35;;;11.30;99.90;;;;;;5000754;28;20089;-80
2023/01/07 06:50:27;;;;;;;3.17;1.20;;;11.30;99.90;;;;;;5016686;28;20120;-79
2023/01/07 06:52:55;;;;;;;2.33;1.30;;;11.30;99.90;;;;;;5017890;28;20053;-79
2023/01/07 06:55:22;;;;;;;3.10;1.60;;;11.20;99.90;;;;;;5017230;28;20049;-78
2023/01/07 06:57:49;;;;;;;3.88;1.48;;;11.20;99.90;;;;;;5017307;28;20140;-79
2023/01/07 07:00:16;;;;;;;1.65;1.05;;;11.20;99.90;;;;;;5020222;28;20045;-79
2023/01/07 07:02:43;;;;;;;3.55;1.35;;;11.30;99.90;;;;;;5015292;28;20213;-79
2023/01/07 07:05:10;;;;;;;1.92;1.20;;;11.30;99.90;;;;;;5021217;28;20354;-78
2023/01/07 07:07:36;;;;;;;2.17;0.90;;;11.20;99.90;;;;;;5022948;28;20059;-80
2023/01/07 07:10:06;;;;;;;1.52;1.10;;;11.30;99.90;;;;;;5021041;28;20093;-78
2023/01/07 07:12:34;;;;;;;2.80;1.33;;;11.30;99.90;;;;;;5020471;28;20546;-79
2023/01/07 07:15:00;;;;;;;3.05;2.15;;;11.30;99.90;;;;;;5021185;28;20053;-79
2023/01/07 07:17:27;;;;;;;2.25;1.08;;;11.20;99.90;;;;;;5021068;28;20072;-78
2023/01/07 07:19:54;;;;;;;2.75;1.50;;;11.20;99.90;;;;;;5004385;28;20053;-80
2023/01/07 07:22:21;;;;;;;1.67;1.10;;;11.20;99.90;;;;;;5021164;28;20111;-79
2023/01/07 07:24:48;;;;;;;2.42;1.27;;;11.30;99.90;;;;;;5019185;28;20050;-79
2023/01/07 07:27:15;;;;;;;3.08;1.23;;;11.30;99.90;;;;;;5004653;28;20300;-79
2023/01/07 07:29:42;;;;;;;1.58;0.85;;;11.30;99.90;;;;;;5020704;28;20561;-79
2023/01/07 07:32:09;;;;;;;2.20;1.25;;;11.30;99.90;;;;;;5020359;28;20493;-79
2023/01/07 07:34:36;;;;;;;2.60;1.50;;;11.30;99.90;;;;;;5001485;28;20485;-79
2023/01/07 07:37:02;;;;;;;3.33;1.27;;;11.30;99.90;;;;;;5020029;28;20057;-80
2023/01/07 07:39:29;;;;;;;2.92;1.20;;;11.30;99.90;;;;;;5020378;28;20053;-79
2023/01/07 07:41:56;;;;;;;2.05;1.42;;;11.30;99.90;;;;;;5020790;28;20272;-79
2023/01/07 07:44:22;;;;;;;3.22;1.45;;;11.30;99.90;;;;;;5020229;28;20053;-79
2023/01/07 07:46:49;;;;;;;2.70;1.45;;;11.30;99.90;;;;;;5020642;28;20182;-79
2023/01/07 07:49:16;;;;;;;3.78;1.35;;;11.30;99.90;;;;;;5021558;28;20540;-80
2023/01/07 07:51:43;;;;;;;4.80;1.77;;;11.30;99.90;;;;;;5022103;28;20056;-79
2023/01/07 07:54:10;;;;;;;3.60;1.40;;;11.30;99.90;;;;;;5019234;28;20061;-79
2023/01/07 07:56:36;;;;;;;2.78;1.17;;;11.30;99.90;;;;;;5022625;28;20571;-79
2023/01/07 07:59:03;;;;;;;3.63;1.48;;;11.30;99.90;;;;;;5020375;28;20060;-79
2023/01/07 08:01:30;;;;;;;2.83;1.10;;;11.30;99.90;;;;;;5020691;28;20049;-80
2023/01/07 08:03:57;;;;;;;4.68;1.95;;;11.30;99.90;;;;;;5015846;28;20501;-78
2023/01/07 08:06:23;;;;;;;5.00;1.42;;;11.20;99.90;;;;;;5004328;28;20058;-80
2023/01/07 08:08:50;;;;;;;4.75;1.60;;;11.30;99.90;;;;;;5001790;28;20052;-79
2023/01/07 08:11:17;;;;;;;2.83;1.33;;;11.30;99.90;;;;;;5013830;28;20642;-79
2023/01/07 08:13:43;;;;;;;1.60;1.13;;;11.30;99.90;;;;;;5040913;28;20052;-80
2023/01/07 08:16:10;;;;;;;3.35;1.17;;;11.30;99.90;;;;;;4993010;28;20365;-80
2023/01/07 08:18:38;;;;;;;2.85;1.58;;;11.30;99.90;;;;;;5013448;28;20045;-79
2023/01/07 08:21:05;;;;;;;3.95;1.38;;;11.30;99.90;;;;;;5018796;28;20091;-80
2023/01/07 08:23:33;;;;;;;3.67;1.55;;;11.30;99.90;;;;;;5018814;28;20137;-79
2023/01/07 08:26:01;;;;;;;4.60;1.40;;;11.30;99.90;;;;;;5019845;28;20129;-80
2023/01/07 08:28:29;;;;;;;2.20;1.13;;;11.30;99.90;;;;;;5020373;28;20064;-81
2023/01/07 08:30:59;;;;;;;4.03;1.50;;;11.30;99.90;;;;;;5000965;28;20068;-79
2023/01/07 08:33:26;;;;;;;2.30;1.30;;;11.30;99.90;;;;;;5002410;28;20397;-78
2023/01/07 08:35:52;;;;;;;2.38;1.48;;;11.30;99.90;;;;;;5016368;28;20048;-79
2023/01/07 08:38:19;;;;;;;2.25;1.30;;;11.30;99.90;;;;;;5019336;28;20045;-79
2023/01/07 08:40:46;;;;;;;2.25;1.20;;;11.30;99.90;;;;;;5022157;28;20390;-79
2023/01/07 08:43:12;;;;;;;2.20;1.27;;;11.30;99.90;;;;;;5019590;28;20049;-79
2023/01/07 08:45:39;;;;;;;3.92;1.38;;;11.20;99.90;;;;;;5018915;28;20323;-79
2023/01/07 08:48:06;;;;;;;2.20;1.35;;;11.20;99.90;;;;;;5003201;28;20053;-79
2023/01/07 08:50:33;;;;;;;2.35;1.10;;;11.20;99.90;;;;;;5019741;28;20085;-79
2023/01/07 08:53:00;;;;;;;2.70;1.55;;;11.20;99.90;;;;;;5018843;28;20084;-80
2023/01/07 08:55:26;;;;;;;1.83;1.00;;;11.10;99.90;;;;;;5019676;28;20041;-79
2023/01/07 08:57:53;;;;;;;2.35;1.35;;;11.10;99.90;;;;;;5013883;28;20153;-79
2023/01/07 09:00:20;;;;;;;2.08;1.17;;;11.00;99.90;;;;;;5005257;28;20144;-79
2023/01/07 09:02:47;;;;;;;3.13;1.67;;;11.00;99.90;;;;;;5004093;28;20050;-78
2023/01/07 09:05:14;;;;;;;2.67;1.20;;;11.00;99.90;;;;;;5001200;28;20053;-78
2023/01/07 09:07:40;;;;;;;2.90;1.42;;;11.00;99.90;;;;;;5001994;28;20417;-79
2023/01/07 09:10:08;;;;;;;2.38;1.02;;;10.90;99.90;;;;;;5017577;28;20057;-79
2023/01/07 09:12:34;;;;;;;3.22;1.10;;;10.90;99.90;;;;;;4987027;28;20050;-78
2023/01/07 09:15:01;;;;;;;2.70;1.50;;;10.80;99.90;;;;;;4986326;28;20586;-77
2023/01/07 09:17:28;;;;;;;3.13;1.15;;;10.80;99.90;;;;;;4999987;28;20165;-79
2023/01/07 09:19:55;;;;;;;2.75;1.33;;;10.80;99.90;;;;;;5012543;28;20436;-78
2023/01/07 09:22:21;;;;;;;1.95;1.08;;;10.80;99.90;;;;;;4999967;28;20049;-78
2023/01/07 09:24:48;;;;;;;1.58;1.08;;;10.80;99.90;;;;;;5014107;28;20100;-78
2023/01/07 09:27:17;;;;;;;2.47;1.17;;;10.80;99.90;;;;;;5000266;28;20053;-78
2023/01/07 09:29:44;;;;;;;2.47;1.42;;;10.70;99.90;;;;;;5002811;28;20057;-78
2023/01/07 09:32:11;;;;;;;2.05;1.15;;;10.70;99.90;;;;;;4996994;28;20331;-78
2023/01/07 09:34:38;;;;;;;3.90;1.70;;;10.70;99.90;;;;;;5000813;28;20132;-78
2023/01/07 09:37:05;;;;;;;2.97;1.30;;;10.70;99.90;;;;;;4984706;28;20133;-78
2023/01/07 09:39:32;;;;;;;2.72;1.20;;;10.60;99.90;;;;;;5003989;28;20045;-78
2023/01/07 09:42:22;;;;;;;2.85;1.33;;;10.60;99.90;;;;;;5006478;28;20049;-78
2023/01/07 09:45:09;;;;;;;3.13;1.60;;;10.60;99.90;;;;;;5002521;28;20064;-78
2023/01/07 09:47:37;;;;;;;2.55;1.25;;;10.60;99.90;;;;;;4994526;28;20437;-79
2023/01/07 09:50:16;;;;;;;1.63;1.20;;;10.50;99.90;;;;;;4991366;28;20147;-79
2023/01/07 09:52:44;;;;;;;2.03;1.10;;;10.50;99.90;;;;;;5011158;28;20510;-78
2023/01/07 09:55:30;;;;;;;2.05;1.10;;;10.50;99.90;;;;;;5001450;28;20049;-79
2023/01/07 09:58:00;;;;;;;2.22;1.27;;;10.40;99.90;;;;;;5015936;28;20049;-78
2023/01/07 10:00:27;;;;;;;2.08;1.15;;;10.40;99.90;;;;;;4996749;28;20149;-81
2023/01/07 10:02:57;;;;;;;1.98;1.20;;;10.40;99.90;;;;;;5004694;28;20413;-81
2023/01/07 10:05:36;;;;;;;3.47;1.52;;;10.40;99.90;;;;;;5012785;28;20065;-81
2023/01/07 10:08:14;;;;;;;1.77;1.13;;;10.40;99.90;;;;;;4999260;28;20093;-79
2023/01/07 10:11:33;;;;;;;3.80;1.58;;;10.40;99.90;;;;;;5017153;28;20060;-79
2023/01/07 10:14:03;;;;;;;2.30;1.40;;;10.40;99.90;;;;;;4995639;28;20181;-80
2023/01/07 10:16:44;;;;;;;2.22;1.10;;;10.40;99.90;;;;;;5009360;28;20053;-78
2023/01/07 10:19:37;;;;;;;2.03;1.20;;;10.40;99.90;;;;;;5016373;28;20124;-79
2023/01/07 10:22:27;;;;;;;1.90;1.02;;;10.40;99.90;;;;;;4987510;28;20183;-79
2023/01/07 10:24:56;;;;;;;2.47;1.20;;;10.40;99.90;;;;;;5015928;28;20057;-79
2023/01/07 10:27:36;;;;;;;2.10;1.23;;;10.30;99.90;;;;;;4983361;28;20332;-80
2023/01/07 10:30:06;;;;;;;2.08;1.08;;;10.40;99.90;;;;;;5001265;28;20084;-80
2023/01/07 10:32:35;;;;;;;2.80;1.30;;;10.40;99.90;;;;;;4983074;28;20041;-79
2023/01/07 10:35:02;;;;;;;2.95;1.52;;;10.40;99.90;;;;;;5005687;28;20135;-79
2023/01/07 10:37:32;;;;;;;2.40;1.27;;;10.40;99.90;;;;;;5016347;28;20357;-79
2023/01/07 10:40:17;;;;;;;2.35;1.25;;;10.40;99.90;;;;;;5017458;28;20136;-79
2023/01/07 10:43:13;;;;;;;2.15;1.23;;;10.50;99.90;;;;;;5015444;28;20143;-79
2023/01/07 10:46:04;;;;;;;2.85;1.35;;;10.50;99.90;;;;;;5000530;28;20052;-80
2023/01/07 10:48:31;;;;;;;3.15;1.50;;;10.50;99.90;;;;;;5013200;28;20154;-79
2023/01/07 10:51:10;;;;;;;3.55;1.85;;;10.50;99.90;;;;;;5011273;28;20046;-78
2023/01/07 10:53:52;;;;;;;3.35;1.67;;;10.50;99.90;;;;;;5015413;28;20057;-80
2023/01/07 10:56:25;;;;;;;4.13;1.45;;;10.60;99.90;;;;;;5015355;28;20164;-79
2023/01/07 10:58:52;;;;;;;3.83;1.93;;;10.60;99.90;;;;;;5017759;28;20513;-80
2023/01/07 11:01:25;;;;;;;3.53;1.80;;;10.60;99.90;;;;;;4999719;28;20673;-79
2023/01/07 11:03:53;;;;;;;2.17;1.30;;;10.60;99.90;;;;;;4976157;28;20076;-78
2023/01/07 11:06:39;;;;;;;2.13;1.42;;;10.60;99.90;;;;;;4982924;28;20295;-79
2023/01/07 11:09:09;;;;;;;4.13;1.65;;;10.60;99.90;;;;;;5011949;28;20065;-79
2023/01/07 11:11:36;;;;;;;3.85;1.80;;;10.70;99.90;;;;;;4980250;28;20065;-79
2023/01/07 11:14:25;;;;;;;2.20;1.42;;;10.70;99.90;;;;;;4991192;28;20064;-79
2023/01/07 11:16:55;;;;;;;2.47;1.13;;;10.70;99.90;;;;;;5014239;28;20469;-78
2023/01/07 11:19:26;;;;;;;3.35;1.70;;;10.70;99.90;;;;;;4997135;28;20081;-79
2023/01/07 11:21:52;;;;;;;4.50;1.40;;;10.80;99.90;;;;;;4995898;28;20076;-78
2023/01/07 11:24:31;;;;;;;2.97;1.73;;;10.80;99.90;;;;;;5016419;28;20057;-80
2023/01/07 11:27:18;;;;;;;4.85;1.83;;;10.80;99.90;;;;;;5000920;28;20076;-80
2023/01/07 11:29:53;;;;;;;3.25;1.65;;;10.70;99.90;;;;;;5015886;28;20132;-80
2023/01/07 11:32:27;;;;;;;4.55;2.15;;;10.80;99.90;;;;;;5013281;28;20547;-79
2023/01/07 11:35:01;;;;;;;5.30;1.67;;;10.80;99.90;;;;;;5013156;28;20125;-78
2023/01/07 11:37:32;;;;;;;2.33;1.55;;;10.80;99.90;;;;;;5014542;28;20049;-79
2023/01/07 11:40:00;;;;;;;4.00;1.85;;;10.80;99.90;;;;;;5018183;28;20049;-80
2023/01/07 11:42:39;;;;;;;4.55;1.95;;;10.90;99.90;;;;;;4984230;28;20107;-80
2023/01/07 11:45:07;;;;;;;3.15;1.73;;;10.90;99.90;;;;;;4996636;28;20068;-79
2023/01/07 11:47:35;;;;;;;2.65;1.50;;;10.90;99.90;;;;;;5011371;28;20168;-80
2023/01/07 11:50:02;;;;;;;5.50;2.28;;;11.00;99.90;;;;;;5007996;28;20576;-82
2023/01/07 11:52:28;;;;;;;4.03;1.67;;;11.00;99.90;;;;;;4990308;28;20113;-79
2023/01/07 11:54:55;;;;;;;2.05;1.27;;;11.00;99.90;;;;;;5003711;28;20155;-80
2023/01/07 11:57:24;;;;;;;2.67;1.45;;;11.00;99.90;;;;;;5000551;28;20412;-79
2023/01/07 12:00:17;;;;;;;3.85;1.63;;;11.10;99.90;;;;;;5010680;28;20132;-80
2023/01/07 12:02:44;;;;;;;3.38;1.73;;;11.10;99.90;;;;;;5011872;28;20697;-81
2023/01/07 12:05:21;;;;;;;3.28;1.50;;;11.10;99.90;;;;;;5018067;28;20045;-80
2023/01/07 12:07:49;;;;;;;1.65;1.50;;;11.10;99.90;;;;;;5008940;28;20068;-78
2023/01/07 12:10:35;;;;;;;4.75;1.63;;;11.20;99.90;;;;;;5017106;28;20103;-78
2023/01/07 12:13:04;;;;;;;2.35;1.52;;;11.10;99.90;;;;;;5015456;28;20087;-79
2023/01/07 12:15:36;;;;;;;3.38;1.40;;;11.10;99.90;;;;;;5014593;28;20463;-78
2023/01/07 12:18:06;;;;;;;1.67;1.25;;;11.00;99.90;;;;;;4998388;28;20058;-78
2023/01/07 12:20:35;;;;;;;3.58;1.95;;;11.00;99.90;;;;;;5015910;28;20394;-78
2023/01/07 12:23:02;;;;;;;3.80;1.80;;;11.00;99.90;;;;;;5017020;28;20500;-78
2023/01/07 12:25:44;;;;;;;4.18;1.60;;;11.10;99.90;;;;;;5012216;28;20569;-78
2023/01/07 12:28:15;;;;;;;3.22;1.60;;;11.20;99.90;;;;;;5013512;28;20423;-77
2023/01/07 12:31:17;;;;;;;5.40;2.10;;;11.30;99.90;;;;;;4991689;28;20081;-78
2023/01/07 12:33:55;;;;;;;3.08;1.77;;;11.30;99.90;;;;;;4989157;28;20049;-78
2023/01/07 12:36:30;;;;;;;2.40;1.45;;;11.40;99.90;;;;;;5019224;28;20056;-79
2023/01/07 12:38:58;;;;;;;4.30;1.50;;;11.40;99.90;;;;;;5020668;28;20108;-78
2023/01/07 12:41:28;;;;;;;2.35;1.63;;;11.40;99.90;;;;;;5013379;28;20049;-79
2023/01/07 12:44:05;;;;;;;3.83;2.10;;;11.40;99.90;;;;;;5015087;28;20073;-79
2023/01/07 12:46:37;;;;;;;2.78;1.60;;;11.40;99.90;;;;;;4981029;28;20095;-78
2023/01/07 12:49:25;;;;;;;3.10;1.50;;;11.40;99.90;;;;;;5013620;28;20050;-78
2023/01/07 12:52:13;;;;;;;2.10;1.35;;;11.40;99.90;;;;;;4997406;28;20065;-78
2023/01/07 12:54:43;;;;;;;3.95;2.15;;;11.40;99.90;;;;;;5019856;28;20066;-78
2023/01/07 12:57:14;;;;;;;5.22;1.73;;;11.30;99.90;;;;;;5008583;28;20046;-79
2023/01/07 12:59:56;;;;;;;4.20;2.00;;;11.30;99.90;;;;;;5017709;28;20045;-79
2023/01/07 13:02:40;;;;;;;2.42;1.58;;;11.30;99.90;;;;;;4995358;28;20049;-80
2023/01/07 13:05:13;;;;;;;2.65;1.67;;;11.40;99.90;;;;;;5017573;28;20080;-80
2023/01/07 13:08:04;;;;;;;4.78;1.67;;;11.30;99.90;;;;;;5017121;28;20107;-80
2023/01/07 13:10:40;;;;;;;4.45;1.70;;;11.30;99.90;;;;;;5003030;28;20071;-80
2023/01/07 13:13:11;;;;;;;2.10;1.60;;;11.30;99.90;;;;;;5002294;28;20148;-80